Holcomb, Illinois
Current Conditions -  °F | °C
As of 7:02 AM on Saturday 25 Oct 2014 (Local Time) from KRFD Reporting Station
Moderate Fog Moderate Fog  
Wind Chill: 49°   Ceiling: 400
Heat Index: 49°   Visibility: 0.12mi
Dew Point: 48°   Wind: 0mph
Humidity: 97%   Direction: NA
Pressure: 29.95"   Gusts: NA
Location:  42.06°N, 89.1°W
Report Text: KRFD 251202Z 00000KT 1/8SM R01/0600V0800FT FG VV004 09/09 A2995 RMK AO2 TWR VIS 1 T00940089
Loading
Personal Weather Stations






























Interactive Weather Map
Tropical Storm Tracking
New forecast layout! Learn more

10-Day Weather Forecast

Advertisements
Track Severe Weather on mobile